sensor_id;sensor_type;location;lat;lon;timestamp;P1;durP1;ratioP1;P2;durP2;ratioP2
22525;SDS011;11429;50.842;4.386;2024-03-22T00:00:28;45.75;;;31.75;;
22525;SDS011;11429;50.842;4.386;2024-03-22T00:02:54;42.95;;;30.30;;
22525;SDS011;11429;50.842;4.386;2024-03-22T00:05:20;44.95;;;31.73;;
22525;SDS011;11429;50.842;4.386;2024-03-22T00:07:47;43.15;;;30.08;;
22525;SDS011;11429;50.842;4.386;2024-03-22T00:10:14;42.70;;;30.83;;
22525;SDS011;11429;50.842;4.386;2024-03-22T00:12:40;40.00;;;28.92;;
22525;SDS011;11429;50.842;4.386;2024-03-22T00:15:05;38.28;;;29.60;;
22525;SDS011;11429;50.842;4.386;2024-03-22T00:17:31;41.97;;;27.42;;
22525;SDS011;11429;50.842;4.386;2024-03-22T00:19:58;40.55;;;29.35;;
22525;SDS011;11429;50.842;4.386;2024-03-22T00:22:25;41.80;;;29.23;;
22525;SDS011;11429;50.842;4.386;2024-03-22T00:24:50;41.33;;;29.15;;
22525;SDS011;11429;50.842;4.386;2024-03-22T00:27:16;40.15;;;28.58;;
22525;SDS011;11429;50.842;4.386;2024-03-22T00:29:42;37.90;;;28.25;;
22525;SDS011;11429;50.842;4.386;2024-03-22T00:32:08;41.05;;;28.27;;
22525;SDS011;11429;50.842;4.386;2024-03-22T00:34:34;43.38;;;29.00;;
22525;SDS011;11429;50.842;4.386;2024-03-22T00:37:00;37.40;;;28.65;;
22525;SDS011;11429;50.842;4.386;2024-03-22T00:39:26;38.58;;;28.52;;
22525;SDS011;11429;50.842;4.386;2024-03-22T00:41:51;38.83;;;27.38;;
22525;SDS011;11429;50.842;4.386;2024-03-22T00:44:17;41.55;;;28.25;;
22525;SDS011;11429;50.842;4.386;2024-03-22T00:46:43;39.35;;;28.10;;
22525;SDS011;11429;50.842;4.386;2024-03-22T00:49:08;33.97;;;26.55;;
22525;SDS011;11429;50.842;4.386;2024-03-22T00:51:34;39.45;;;26.98;;
22525;SDS011;11429;50.842;4.386;2024-03-22T00:54:00;37.80;;;27.23;;
22525;SDS011;11429;50.842;4.386;2024-03-22T00:56:25;40.17;;;27.63;;
22525;SDS011;11429;50.842;4.386;2024-03-22T00:58:51;43.08;;;27.20;;
22525;SDS011;11429;50.842;4.386;2024-03-22T01:01:17;33.08;;;25.15;;
22525;SDS011;11429;50.842;4.386;2024-03-22T01:03:43;36.05;;;26.75;;
22525;SDS011;11429;50.842;4.386;2024-03-22T01:06:08;38.03;;;26.70;;
22525;SDS011;11429;50.842;4.386;2024-03-22T01:08:34;39.53;;;26.98;;
22525;SDS011;11429;50.842;4.386;2024-03-22T01:11:00;37.90;;;27.95;;
22525;SDS011;11429;50.842;4.386;2024-03-22T01:13:26;50.50;;;29.00;;
22525;SDS011;11429;50.842;4.386;2024-03-22T01:15:51;42.45;;;28.90;;
22525;SDS011;11429;50.842;4.386;2024-03-22T01:18:17;38.75;;;27.67;;
22525;SDS011;11429;50.842;4.386;2024-03-22T01:20:43;39.80;;;27.63;;
22525;SDS011;11429;50.842;4.386;2024-03-22T01:23:09;41.40;;;28.02;;
22525;SDS011;11429;50.842;4.386;2024-03-22T01:25:34;39.85;;;28.63;;
22525;SDS011;11429;50.842;4.386;2024-03-22T01:28:00;36.00;;;28.27;;
22525;SDS011;11429;50.842;4.386;2024-03-22T01:30:26;39.28;;;28.95;;
22525;SDS011;11429;50.842;4.386;2024-03-22T01:32:55;39.80;;;28.50;;
22525;SDS011;11429;50.842;4.386;2024-03-22T01:35:21;38.55;;;28.40;;
22525;SDS011;11429;50.842;4.386;2024-03-22T01:37:46;41.60;;;30.08;;
22525;SDS011;11429;50.842;4.386;2024-03-22T01:40:13;39.53;;;28.15;;
22525;SDS011;11429;50.842;4.386;2024-03-22T01:42:39;42.85;;;30.48;;
22525;SDS011;11429;50.842;4.386;2024-03-22T01:45:05;42.55;;;29.83;;
22525;SDS011;11429;50.842;4.386;2024-03-22T01:47:31;38.40;;;28.55;;
22525;SDS011;11429;50.842;4.386;2024-03-22T01:49:57;42.88;;;28.95;;
22525;SDS011;11429;50.842;4.386;2024-03-22T01:52:23;40.78;;;28.20;;
22525;SDS011;11429;50.842;4.386;2024-03-22T01:54:49;41.90;;;28.33;;
22525;SDS011;11429;50.842;4.386;2024-03-22T01:57:15;39.90;;;28.08;;
22525;SDS011;11429;50.842;4.386;2024-03-22T01:59:40;36.25;;;27.65;;
22525;SDS011;11429;50.842;4.386;2024-03-22T02:02:07;38.38;;;27.55;;
22525;SDS011;11429;50.842;4.386;2024-03-22T02:04:32;40.17;;;28.17;;
22525;SDS011;11429;50.842;4.386;2024-03-22T02:06:58;45.58;;;27.92;;
22525;SDS011;11429;50.842;4.386;2024-03-22T02:09:24;40.20;;;27.98;;
22525;SDS011;11429;50.842;4.386;2024-03-22T02:11:50;41.78;;;27.40;;
22525;SDS011;11429;50.842;4.386;2024-03-22T02:14:16;41.75;;;28.50;;
22525;SDS011;11429;50.842;4.386;2024-03-22T02:16:42;40.67;;;28.45;;
22525;SDS011;11429;50.842;4.386;2024-03-22T02:19:08;39.50;;;29.27;;
22525;SDS011;11429;50.842;4.386;2024-03-22T02:21:34;42.78;;;28.35;;
22525;SDS011;11429;50.842;4.386;2024-03-22T02:23:59;41.25;;;28.38;;
22525;SDS011;11429;50.842;4.386;2024-03-22T02:26:25;43.25;;;29.48;;
22525;SDS011;11429;50.842;4.386;2024-03-22T02:28:51;37.38;;;27.48;;
22525;SDS011;11429;50.842;4.386;2024-03-22T02:31:17;40.97;;;27.83;;
22525;SDS011;11429;50.842;4.386;2024-03-22T02:33:42;37.47;;;28.20;;
22525;SDS011;11429;50.842;4.386;2024-03-22T02:36:08;38.67;;;27.13;;
22525;SDS011;11429;50.842;4.386;2024-03-22T02:38:34;37.60;;;27.45;;
22525;SDS011;11429;50.842;4.386;2024-03-22T02:41:00;36.80;;;27.33;;
22525;SDS011;11429;50.842;4.386;2024-03-22T02:43:26;38.78;;;26.95;;
22525;SDS011;11429;50.842;4.386;2024-03-22T02:45:51;37.38;;;25.63;;
22525;SDS011;11429;50.842;4.386;2024-03-22T02:48:17;38.92;;;25.55;;
22525;SDS011;11429;50.842;4.386;2024-03-22T02:50:43;40.92;;;26.83;;
22525;SDS011;11429;50.842;4.386;2024-03-22T02:53:08;37.05;;;25.80;;
22525;SDS011;11429;50.842;4.386;2024-03-22T02:55:37;36.58;;;26.00;;
22525;SDS011;11429;50.842;4.386;2024-03-22T02:58:04;34.65;;;25.85;;
22525;SDS011;11429;50.842;4.386;2024-03-22T03:00:31;37.97;;;26.45;;
22525;SDS011;11429;50.842;4.386;2024-03-22T03:03:00;36.15;;;25.23;;
22525;SDS011;11429;50.842;4.386;2024-03-22T03:05:26;36.20;;;24.83;;
22525;SDS011;11429;50.842;4.386;2024-03-22T03:07:51;35.88;;;25.58;;
22525;SDS011;11429;50.842;4.386;2024-03-22T03:10:17;36.72;;;24.83;;
22525;SDS011;11429;50.842;4.386;2024-03-22T03:12:43;37.10;;;25.33;;
22525;SDS011;11429;50.842;4.386;2024-03-22T03:15:09;36.10;;;24.45;;
22525;SDS011;11429;50.842;4.386;2024-03-22T03:17:34;33.30;;;24.52;;
22525;SDS011;11429;50.842;4.386;2024-03-22T03:20:00;35.03;;;23.13;;
22525;SDS011;11429;50.842;4.386;2024-03-22T03:22:26;35.10;;;24.17;;
22525;SDS011;11429;50.842;4.386;2024-03-22T03:24:51;32.40;;;22.98;;
22525;SDS011;11429;50.842;4.386;2024-03-22T03:27:17;35.50;;;21.95;;
22525;SDS011;11429;50.842;4.386;2024-03-22T03:29:43;31.95;;;22.05;;
22525;SDS011;11429;50.842;4.386;2024-03-22T03:32:08;32.80;;;21.88;;
22525;SDS011;11429;50.842;4.386;2024-03-22T03:34:34;30.42;;;22.73;;
22525;SDS011;11429;50.842;4.386;2024-03-22T03:37:00;29.75;;;21.20;;
22525;SDS011;11429;50.842;4.386;2024-03-22T03:39:26;30.95;;;21.30;;
22525;SDS011;11429;50.842;4.386;2024-03-22T03:41:54;29.77;;;20.77;;
22525;SDS011;11429;50.842;4.386;2024-03-22T03:44:20;27.75;;;20.27;;
22525;SDS011;11429;50.842;4.386;2024-03-22T03:46:46;31.60;;;21.25;;
22525;SDS011;11429;50.842;4.386;2024-03-22T03:49:11;32.05;;;21.25;;
22525;SDS011;11429;50.842;4.386;2024-03-22T03:51:37;30.90;;;20.40;;
22525;SDS011;11429;50.842;4.386;2024-03-22T03:54:03;30.23;;;22.27;;
22525;SDS011;11429;50.842;4.386;2024-03-22T03:56:29;32.40;;;21.88;;
22525;SDS011;11429;50.842;4.386;2024-03-22T03:58:54;35.13;;;21.17;;
22525;SDS011;11429;50.842;4.386;2024-03-22T04:01:20;33.85;;;22.13;;
22525;SDS011;11429;50.842;4.386;2024-03-22T04:03:48;30.17;;;20.30;;
22525;SDS011;11429;50.842;4.386;2024-03-22T04:06:14;28.75;;;20.02;;
22525;SDS011;11429;50.842;4.386;2024-03-22T04:08:39;28.10;;;20.05;;
22525;SDS011;11429;50.842;4.386;2024-03-22T04:11:05;29.83;;;20.00;;
22525;SDS011;11429;50.842;4.386;2024-03-22T04:13:31;31.17;;;19.20;;
22525;SDS011;11429;50.842;4.386;2024-03-22T04:15:58;29.00;;;19.00;;
22525;SDS011;11429;50.842;4.386;2024-03-22T04:18:24;28.70;;;19.60;;
22525;SDS011;11429;50.842;4.386;2024-03-22T04:20:54;28.48;;;19.75;;
22525;SDS011;11429;50.842;4.386;2024-03-22T04:23:21;28.42;;;19.98;;
22525;SDS011;11429;50.842;4.386;2024-03-22T04:25:59;28.80;;;19.67;;
22525;SDS011;11429;50.842;4.386;2024-03-22T04:28:26;28.60;;;19.83;;
22525;SDS011;11429;50.842;4.386;2024-03-22T04:31:03;29.92;;;19.92;;
22525;SDS011;11429;50.842;4.386;2024-03-22T04:33:30;31.38;;;18.17;;
22525;SDS011;11429;50.842;4.386;2024-03-22T04:35:57;44.83;;;20.60;;
22525;SDS011;11429;50.842;4.386;2024-03-22T04:38:23;27.92;;;19.55;;
22525;SDS011;11429;50.842;4.386;2024-03-22T04:40:52;26.58;;;18.30;;
22525;SDS011;11429;50.842;4.386;2024-03-22T04:43:18;26.85;;;17.88;;
22525;SDS011;11429;50.842;4.386;2024-03-22T04:45:47;27.55;;;18.00;;
22525;SDS011;11429;50.842;4.386;2024-03-22T04:48:15;27.17;;;16.98;;
22525;SDS011;11429;50.842;4.386;2024-03-22T04:50:42;30.30;;;18.83;;
22525;SDS011;11429;50.842;4.386;2024-03-22T04:53:07;25.55;;;16.58;;
22525;SDS011;11429;50.842;4.386;2024-03-22T04:55:33;27.48;;;19.10;;
22525;SDS011;11429;50.842;4.386;2024-03-22T04:57:59;27.77;;;18.20;;
22525;SDS011;11429;50.842;4.386;2024-03-22T05:00:25;29.55;;;18.40;;
22525;SDS011;11429;50.842;4.386;2024-03-22T05:02:51;24.95;;;17.90;;
22525;SDS011;11429;50.842;4.386;2024-03-22T05:05:17;29.17;;;18.73;;
22525;SDS011;11429;50.842;4.386;2024-03-22T05:07:43;28.25;;;18.50;;
22525;SDS011;11429;50.842;4.386;2024-03-22T05:10:09;29.50;;;19.50;;
22525;SDS011;11429;50.842;4.386;2024-03-22T05:12:35;26.08;;;19.05;;
22525;SDS011;11429;50.842;4.386;2024-03-22T05:15:05;25.63;;;18.45;;
22525;SDS011;11429;50.842;4.386;2024-03-22T05:17:31;32.95;;;18.75;;
22525;SDS011;11429;50.842;4.386;2024-03-22T05:19:58;27.98;;;19.40;;
22525;SDS011;11429;50.842;4.386;2024-03-22T05:22:24;26.30;;;18.75;;
22525;SDS011;11429;50.842;4.386;2024-03-22T05:24:50;29.33;;;18.80;;
22525;SDS011;11429;50.842;4.386;2024-03-22T05:27:16;29.30;;;18.75;;
22525;SDS011;11429;50.842;4.386;2024-03-22T05:29:42;32.40;;;18.85;;
22525;SDS011;11429;50.842;4.386;2024-03-22T05:32:08;29.05;;;17.90;;
22525;SDS011;11429;50.842;4.386;2024-03-22T05:34:34;25.75;;;17.52;;
22525;SDS011;11429;50.842;4.386;2024-03-22T05:37:00;27.77;;;18.55;;
22525;SDS011;11429;50.842;4.386;2024-03-22T05:39:26;24.60;;;17.50;;
22525;SDS011;11429;50.842;4.386;2024-03-22T05:41:52;29.67;;;17.70;;
22525;SDS011;11429;50.842;4.386;2024-03-22T05:44:19;26.50;;;17.80;;
22525;SDS011;11429;50.842;4.386;2024-03-22T05:46:47;27.05;;;16.73;;
22525;SDS011;11429;50.842;4.386;2024-03-22T05:49:13;26.65;;;17.20;;
22525;SDS011;11429;50.842;4.386;2024-03-22T05:51:39;27.77;;;16.98;;
22525;SDS011;11429;50.842;4.386;2024-03-22T05:54:05;29.80;;;18.75;;
22525;SDS011;11429;50.842;4.386;2024-03-22T05:56:31;26.88;;;17.85;;
22525;SDS011;11429;50.842;4.386;2024-03-22T05:58:57;25.02;;;17.38;;
22525;SDS011;11429;50.842;4.386;2024-03-22T06:01:22;25.88;;;17.70;;
22525;SDS011;11429;50.842;4.386;2024-03-22T06:03:48;39.15;;;19.55;;
22525;SDS011;11429;50.842;4.386;2024-03-22T06:06:14;24.30;;;17.25;;
22525;SDS011;11429;50.842;4.386;2024-03-22T06:08:41;27.38;;;17.10;;
22525;SDS011;11429;50.842;4.386;2024-03-22T06:11:08;24.23;;;16.60;;
22525;SDS011;11429;50.842;4.386;2024-03-22T06:13:34;28.63;;;17.20;;
22525;SDS011;11429;50.842;4.386;2024-03-22T06:16:01;24.52;;;16.90;;
22525;SDS011;11429;50.842;4.386;2024-03-22T06:18:27;31.50;;;18.10;;
22525;SDS011;11429;50.842;4.386;2024-03-22T06:20:53;25.48;;;17.50;;
22525;SDS011;11429;50.842;4.386;2024-03-22T06:23:20;26.75;;;17.42;;
22525;SDS011;11429;50.842;4.386;2024-03-22T06:25:55;29.10;;;16.85;;
22525;SDS011;11429;50.842;4.386;2024-03-22T06:30:47;27.17;;;17.10;;
22525;SDS011;11429;50.842;4.386;2024-03-22T06:33:13;25.45;;;16.67;;
22525;SDS011;11429;50.842;4.386;2024-03-22T06:35:40;28.00;;;18.83;;
22525;SDS011;11429;50.842;4.386;2024-03-22T06:38:06;30.83;;;19.10;;
22525;SDS011;11429;50.842;4.386;2024-03-22T06:40:32;31.67;;;19.77;;
22525;SDS011;11429;50.842;4.386;2024-03-22T06:42:58;28.80;;;18.52;;
22525;SDS011;11429;50.842;4.386;2024-03-22T06:45:24;27.98;;;17.98;;
22525;SDS011;11429;50.842;4.386;2024-03-22T06:47:49;29.85;;;18.25;;
22525;SDS011;11429;50.842;4.386;2024-03-22T06:50:15;28.63;;;16.50;;
22525;SDS011;11429;50.842;4.386;2024-03-22T06:52:42;25.90;;;16.75;;
22525;SDS011;11429;50.842;4.386;2024-03-22T06:55:08;25.10;;;16.40;;
22525;SDS011;11429;50.842;4.386;2024-03-22T06:57:34;26.80;;;16.35;;
22525;SDS011;11429;50.842;4.386;2024-03-22T07:00:00;22.25;;;15.85;;
22525;SDS011;11429;50.842;4.386;2024-03-22T07:02:26;23.67;;;16.17;;
22525;SDS011;11429;50.842;4.386;2024-03-22T07:04:51;26.42;;;22.73;;
22525;SDS011;11429;50.842;4.386;2024-03-22T07:07:23;39.65;;;16.52;;
22525;SDS011;11429;50.842;4.386;2024-03-22T07:09:51;25.73;;;15.90;;
22525;SDS011;11429;50.842;4.386;2024-03-22T07:12:17;26.50;;;14.82;;
22525;SDS011;11429;50.842;4.386;2024-03-22T07:14:43;26.48;;;16.38;;
22525;SDS011;11429;50.842;4.386;2024-03-22T07:17:08;25.90;;;15.52;;
22525;SDS011;11429;50.842;4.386;2024-03-22T07:19:35;27.67;;;15.98;;
22525;SDS011;11429;50.842;4.386;2024-03-22T07:22:01;35.80;;;16.88;;
22525;SDS011;11429;50.842;4.386;2024-03-22T07:24:27;25.52;;;16.23;;
22525;SDS011;11429;50.842;4.386;2024-03-22T07:26:52;26.10;;;17.00;;
22525;SDS011;11429;50.842;4.386;2024-03-22T07:29:18;24.90;;;15.10;;
22525;SDS011;11429;50.842;4.386;2024-03-22T07:31:44;25.80;;;17.02;;
22525;SDS011;11429;50.842;4.386;2024-03-22T07:34:10;29.65;;;16.00;;
22525;SDS011;11429;50.842;4.386;2024-03-22T07:36:39;25.27;;;16.58;;
22525;SDS011;11429;50.842;4.386;2024-03-22T07:39:05;26.17;;;15.95;;
22525;SDS011;11429;50.842;4.386;2024-03-22T07:41:33;28.08;;;16.30;;
22525;SDS011;11429;50.842;4.386;2024-03-22T07:44:00;22.20;;;15.15;;
22525;SDS011;11429;50.842;4.386;2024-03-22T07:46:26;26.85;;;16.50;;
22525;SDS011;11429;50.842;4.386;2024-03-22T07:48:52;24.95;;;14.38;;
22525;SDS011;11429;50.842;4.386;2024-03-22T07:51:19;24.20;;;14.82;;
22525;SDS011;11429;50.842;4.386;2024-03-22T07:53:45;28.33;;;16.92;;
22525;SDS011;11429;50.842;4.386;2024-03-22T07:56:11;39.38;;;16.08;;
22525;SDS011;11429;50.842;4.386;2024-03-22T07:58:38;30.73;;;14.80;;
22525;SDS011;11429;50.842;4.386;2024-03-22T08:01:03;24.13;;;14.77;;
22525;SDS011;11429;50.842;4.386;2024-03-22T08:03:29;21.17;;;13.38;;
22525;SDS011;11429;50.842;4.386;2024-03-22T08:05:55;22.25;;;14.23;;
22525;SDS011;11429;50.842;4.386;2024-03-22T08:08:20;21.02;;;13.38;;
22525;SDS011;11429;50.842;4.386;2024-03-22T08:10:46;22.95;;;14.45;;
22525;SDS011;11429;50.842;4.386;2024-03-22T08:13:12;23.63;;;14.35;;
22525;SDS011;11429;50.842;4.386;2024-03-22T08:15:37;24.58;;;13.88;;
22525;SDS011;11429;50.842;4.386;2024-03-22T08:18:03;19.25;;;12.88;;
22525;SDS011;11429;50.842;4.386;2024-03-22T08:20:29;20.88;;;13.98;;
22525;SDS011;11429;50.842;4.386;2024-03-22T08:22:57;24.15;;;14.07;;
22525;SDS011;11429;50.842;4.386;2024-03-22T08:25:23;26.13;;;14.35;;
22525;SDS011;11429;50.842;4.386;2024-03-22T08:27:50;25.20;;;14.88;;
22525;SDS011;11429;50.842;4.386;2024-03-22T08:30:19;25.45;;;16.10;;
22525;SDS011;11429;50.842;4.386;2024-03-22T08:32:45;24.85;;;17.55;;
22525;SDS011;11429;50.842;4.386;2024-03-22T08:35:10;27.65;;;18.75;;
22525;SDS011;11429;50.842;4.386;2024-03-22T08:37:36;25.58;;;18.00;;
22525;SDS011;11429;50.842;4.386;2024-03-22T08:40:02;25.73;;;19.00;;
22525;SDS011;11429;50.842;4.386;2024-03-22T08:42:29;28.58;;;19.02;;
22525;SDS011;11429;50.842;4.386;2024-03-22T08:44:55;27.23;;;18.52;;
22525;SDS011;11429;50.842;4.386;2024-03-22T08:47:21;33.92;;;17.73;;
22525;SDS011;11429;50.842;4.386;2024-03-22T08:49:46;23.95;;;17.08;;
22525;SDS011;11429;50.842;4.386;2024-03-22T08:52:12;22.65;;;17.95;;
22525;SDS011;11429;50.842;4.386;2024-03-22T08:54:38;27.60;;;18.55;;
22525;SDS011;11429;50.842;4.386;2024-03-22T08:57:04;26.20;;;17.45;;
22525;SDS011;11429;50.842;4.386;2024-03-22T08:59:29;22.45;;;16.80;;
22525;SDS011;11429;50.842;4.386;2024-03-22T09:01:55;26.33;;;16.60;;
22525;SDS011;11429;50.842;4.386;2024-03-22T09:04:21;25.45;;;16.55;;
22525;SDS011;11429;50.842;4.386;2024-03-22T09:06:46;23.75;;;16.70;;
22525;SDS011;11429;50.842;4.386;2024-03-22T09:09:12;22.45;;;16.60;;
22525;SDS011;11429;50.842;4.386;2024-03-22T09:11:38;21.60;;;16.05;;
22525;SDS011;11429;50.842;4.386;2024-03-22T09:14:04;30.20;;;15.98;;
22525;SDS011;11429;50.842;4.386;2024-03-22T09:16:29;22.80;;;15.93;;
22525;SDS011;11429;50.842;4.386;2024-03-22T09:18:55;23.15;;;15.98;;
22525;SDS011;11429;50.842;4.386;2024-03-22T09:21:21;22.05;;;15.32;;
22525;SDS011;11429;50.842;4.386;2024-03-22T09:23:49;20.38;;;14.63;;
22525;SDS011;11429;50.842;4.386;2024-03-22T09:26:15;25.33;;;16.00;;
22525;SDS011;11429;50.842;4.386;2024-03-22T09:28:41;27.33;;;16.60;;
22525;SDS011;11429;50.842;4.386;2024-03-22T09:31:07;20.20;;;14.98;;
22525;SDS011;11429;50.842;4.386;2024-03-22T09:33:33;23.55;;;16.75;;
22525;SDS011;11429;50.842;4.386;2024-03-22T09:36:00;22.58;;;16.23;;
22525;SDS011;11429;50.842;4.386;2024-03-22T09:38:27;22.88;;;15.75;;
22525;SDS011;11429;50.842;4.386;2024-03-22T09:40:53;22.27;;;15.20;;
22525;SDS011;11429;50.842;4.386;2024-03-22T09:43:20;21.83;;;17.20;;
22525;SDS011;11429;50.842;4.386;2024-03-22T09:45:47;22.05;;;15.68;;
22525;SDS011;11429;50.842;4.386;2024-03-22T09:48:15;30.33;;;16.80;;
22525;SDS011;11429;50.842;4.386;2024-03-22T09:50:43;25.05;;;16.30;;
22525;SDS011;11429;50.842;4.386;2024-03-22T09:53:11;22.52;;;16.60;;
22525;SDS011;11429;50.842;4.386;2024-03-22T09:55:38;22.52;;;16.10;;
22525;SDS011;11429;50.842;4.386;2024-03-22T09:58:08;22.88;;;16.40;;
22525;SDS011;11429;50.842;4.386;2024-03-22T10:00:35;32.33;;;17.83;;
22525;SDS011;11429;50.842;4.386;2024-03-22T10:03:01;30.92;;;16.88;;
22525;SDS011;11429;50.842;4.386;2024-03-22T10:05:28;29.67;;;17.02;;
22525;SDS011;11429;50.842;4.386;2024-03-22T10:07:54;29.00;;;16.85;;
22525;SDS011;11429;50.842;4.386;2024-03-22T10:10:20;19.73;;;15.98;;
22525;SDS011;11429;50.842;4.386;2024-03-22T10:12:46;24.70;;;16.52;;
22525;SDS011;11429;50.842;4.386;2024-03-22T10:15:12;25.27;;;15.48;;
22525;SDS011;11429;50.842;4.386;2024-03-22T10:17:39;29.98;;;15.85;;
22525;SDS011;11429;50.842;4.386;2024-03-22T10:20:05;23.55;;;16.23;;
22525;SDS011;11429;50.842;4.386;2024-03-22T10:22:37;30.02;;;16.50;;
22525;SDS011;11429;50.842;4.386;2024-03-22T10:25:06;26.70;;;15.57;;
22525;SDS011;11429;50.842;4.386;2024-03-22T10:27:32;22.20;;;14.90;;
22525;SDS011;11429;50.842;4.386;2024-03-22T10:29:58;22.42;;;16.50;;
22525;SDS011;11429;50.842;4.386;2024-03-22T10:32:24;31.17;;;16.48;;
22525;SDS011;11429;50.842;4.386;2024-03-22T10:34:50;18.35;;;14.95;;
22525;SDS011;11429;50.842;4.386;2024-03-22T10:37:16;26.17;;;16.65;;
22525;SDS011;11429;50.842;4.386;2024-03-22T10:39:42;34.65;;;14.85;;
22525;SDS011;11429;50.842;4.386;2024-03-22T10:42:11;20.75;;;14.13;;
22525;SDS011;11429;50.842;4.386;2024-03-22T10:44:37;31.75;;;15.05;;
22525;SDS011;11429;50.842;4.386;2024-03-22T10:47:04;23.05;;;15.38;;
22525;SDS011;11429;50.842;4.386;2024-03-22T10:49:35;19.80;;;14.75;;
22525;SDS011;11429;50.842;4.386;2024-03-22T10:52:02;19.50;;;14.30;;
22525;SDS011;11429;50.842;4.386;2024-03-22T10:54:34;20.50;;;14.95;;
22525;SDS011;11429;50.842;4.386;2024-03-22T10:57:05;21.33;;;15.27;;
22525;SDS011;11429;50.842;4.386;2024-03-22T10:59:34;25.45;;;16.63;;
22525;SDS011;11429;50.842;4.386;2024-03-22T11:02:03;23.98;;;15.23;;
22525;SDS011;11429;50.842;4.386;2024-03-22T11:04:32;26.75;;;17.10;;
22525;SDS011;11429;50.842;4.386;2024-03-22T11:06:58;22.20;;;16.00;;
22525;SDS011;11429;50.842;4.386;2024-03-22T11:09:25;25.38;;;15.88;;
22525;SDS011;11429;50.842;4.386;2024-03-22T11:11:52;24.83;;;16.50;;
22525;SDS011;11429;50.842;4.386;2024-03-22T11:14:18;23.08;;;14.82;;
22525;SDS011;11429;50.842;4.386;2024-03-22T11:16:48;31.67;;;16.83;;
22525;SDS011;11429;50.842;4.386;2024-03-22T11:19:14;22.92;;;16.30;;
22525;SDS011;11429;50.842;4.386;2024-03-22T11:21:39;26.10;;;15.82;;
22525;SDS011;11429;50.842;4.386;2024-03-22T11:24:05;19.83;;;15.38;;
22525;SDS011;11429;50.842;4.386;2024-03-22T11:26:34;19.05;;;14.55;;
22525;SDS011;11429;50.842;4.386;2024-03-22T11:29:00;22.83;;;14.43;;
22525;SDS011;11429;50.842;4.386;2024-03-22T11:31:26;23.05;;;13.55;;
22525;SDS011;11429;50.842;4.386;2024-03-22T11:33:53;18.10;;;14.65;;
22525;SDS011;11429;50.842;4.386;2024-03-22T11:36:19;24.48;;;14.02;;
22525;SDS011;11429;50.842;4.386;2024-03-22T11:38:45;21.35;;;13.93;;
22525;SDS011;11429;50.842;4.386;2024-03-22T11:41:15;20.50;;;14.25;;
22525;SDS011;11429;50.842;4.386;2024-03-22T11:43:48;23.23;;;15.77;;
22525;SDS011;11429;50.842;4.386;2024-03-22T11:46:15;20.30;;;15.00;;
22525;SDS011;11429;50.842;4.386;2024-03-22T11:48:42;23.60;;;15.20;;
22525;SDS011;11429;50.842;4.386;2024-03-22T11:51:09;20.20;;;13.90;;
22525;SDS011;11429;50.842;4.386;2024-03-22T11:53:35;23.58;;;13.98;;
22525;SDS011;11429;50.842;4.386;2024-03-22T11:56:02;22.88;;;13.82;;
22525;SDS011;11429;50.842;4.386;2024-03-22T11:58:29;20.40;;;15.10;;
22525;SDS011;11429;50.842;4.386;2024-03-22T12:00:56;20.98;;;13.70;;
22525;SDS011;11429;50.842;4.386;2024-03-22T12:03:22;21.15;;;15.05;;
22525;SDS011;11429;50.842;4.386;2024-03-22T12:05:48;19.40;;;14.23;;
22525;SDS011;11429;50.842;4.386;2024-03-22T12:08:20;22.15;;;15.10;;
22525;SDS011;11429;50.842;4.386;2024-03-22T12:10:45;18.15;;;14.30;;
22525;SDS011;11429;50.842;4.386;2024-03-22T12:13:11;24.27;;;15.60;;
22525;SDS011;11429;50.842;4.386;2024-03-22T12:15:37;23.23;;;14.98;;
22525;SDS011;11429;50.842;4.386;2024-03-22T12:18:03;22.67;;;14.50;;
22525;SDS011;11429;50.842;4.386;2024-03-22T12:20:28;21.58;;;14.60;;
22525;SDS011;11429;50.842;4.386;2024-03-22T12:22:54;20.15;;;14.90;;
22525;SDS011;11429;50.842;4.386;2024-03-22T12:25:20;19.40;;;14.68;;
22525;SDS011;11429;50.842;4.386;2024-03-22T12:27:46;21.08;;;13.98;;
22525;SDS011;11429;50.842;4.386;2024-03-22T12:30:12;18.88;;;14.43;;
22525;SDS011;11429;50.842;4.386;2024-03-22T12:32:38;21.33;;;15.00;;
22525;SDS011;11429;50.842;4.386;2024-03-22T12:35:04;27.15;;;16.20;;
22525;SDS011;11429;50.842;4.386;2024-03-22T12:37:30;23.35;;;15.30;;
22525;SDS011;11429;50.842;4.386;2024-03-22T12:39:56;21.42;;;14.82;;
22525;SDS011;11429;50.842;4.386;2024-03-22T12:42:22;21.08;;;14.27;;
22525;SDS011;11429;50.842;4.386;2024-03-22T12:44:48;17.35;;;13.13;;
22525;SDS011;11429;50.842;4.386;2024-03-22T12:47:14;22.52;;;12.48;;
22525;SDS011;11429;50.842;4.386;2024-03-22T12:49:39;18.17;;;12.38;;
22525;SDS011;11429;50.842;4.386;2024-03-22T12:52:05;19.05;;;12.57;;
22525;SDS011;11429;50.842;4.386;2024-03-22T12:54:32;19.90;;;11.45;;
22525;SDS011;11429;50.842;4.386;2024-03-22T12:56:57;19.38;;;11.27;;
22525;SDS011;11429;50.842;4.386;2024-03-22T12:59:23;25.95;;;10.48;;
22525;SDS011;11429;50.842;4.386;2024-03-22T13:01:49;19.52;;;10.93;;
22525;SDS011;11429;50.842;4.386;2024-03-22T13:04:14;18.30;;;11.68;;
22525;SDS011;11429;50.842;4.386;2024-03-22T13:06:42;25.70;;;11.55;;
22525;SDS011;11429;50.842;4.386;2024-03-22T13:09:08;21.27;;;13.82;;
22525;SDS011;11429;50.842;4.386;2024-03-22T13:11:34;18.48;;;11.50;;
22525;SDS011;11429;50.842;4.386;2024-03-22T13:14:00;20.17;;;10.43;;
22525;SDS011;11429;50.842;4.386;2024-03-22T13:16:26;16.73;;;10.63;;
22525;SDS011;11429;50.842;4.386;2024-03-22T13:18:52;18.05;;;10.35;;
22525;SDS011;11429;50.842;4.386;2024-03-22T13:21:18;16.00;;;9.80;;
22525;SDS011;11429;50.842;4.386;2024-03-22T13:23:44;42.67;;;10.80;;
22525;SDS011;11429;50.842;4.386;2024-03-22T13:26:10;17.02;;;9.02;;
22525;SDS011;11429;50.842;4.386;2024-03-22T13:28:36;52.15;;;12.95;;
22525;SDS011;11429;50.842;4.386;2024-03-22T13:31:08;22.25;;;10.68;;
22525;SDS011;11429;50.842;4.386;2024-03-22T13:33:34;18.63;;;9.50;;
22525;SDS011;11429;50.842;4.386;2024-03-22T13:36:03;25.15;;;12.52;;
22525;SDS011;11429;50.842;4.386;2024-03-22T13:38:38;16.95;;;9.63;;
22525;SDS011;11429;50.842;4.386;2024-03-22T13:41:03;24.70;;;10.30;;
22525;SDS011;11429;50.842;4.386;2024-03-22T13:43:31;17.05;;;9.55;;
22525;SDS011;11429;50.842;4.386;2024-03-22T13:45:57;16.58;;;9.90;;
22525;SDS011;11429;50.842;4.386;2024-03-22T13:48:23;15.35;;;10.00;;
22525;SDS011;11429;50.842;4.386;2024-03-22T13:50:50;18.00;;;8.95;;
22525;SDS011;11429;50.842;4.386;2024-03-22T13:53:19;16.65;;;10.00;;
22525;SDS011;11429;50.842;4.386;2024-03-22T13:55:49;19.50;;;11.00;;
22525;SDS011;11429;50.842;4.386;2024-03-22T13:58:15;41.75;;;12.52;;
22525;SDS011;11429;50.842;4.386;2024-03-22T14:00:41;21.45;;;11.90;;
22525;SDS011;11429;50.842;4.386;2024-03-22T14:03:07;125.57;;;30.88;;
22525;SDS011;11429;50.842;4.386;2024-03-22T14:05:33;110.28;;;26.73;;
22525;SDS011;11429;50.842;4.386;2024-03-22T14:07:59;48.88;;;17.95;;
22525;SDS011;11429;50.842;4.386;2024-03-22T14:10:25;20.45;;;11.70;;
22525;SDS011;11429;50.842;4.386;2024-03-22T14:12:56;19.17;;;10.98;;
22525;SDS011;11429;50.842;4.386;2024-03-22T14:15:22;17.27;;;10.73;;
22525;SDS011;11429;50.842;4.386;2024-03-22T14:17:51;19.30;;;10.93;;